Time;durP1;ratioP1;P1;durP2;ratioP2;P2;SDS_P1;SDS_P2;PMS_P1;PMS_P2;Temp;Humidity;BMP_temperature;BMP_pressure;BME280_temperature;BME280_humidity;BME280_pressure;Samples;Min_cycle;Max_cycle;Signal;HPM_P1;HPM_P2
2022/08/04 00:00:33;;;;;;;2.92;1.65;;;22.70;99.90;;;;;;5014912;28;20116;-92
2022/08/04 00:03:36;;;;;;;2.53;1.75;;;23.00;99.90;;;;;;5013407;28;20051;-93
2022/08/04 00:12:43;;;;;;;8.10;1.70;;;23.60;99.20;;;;;;5014623;28;20040;-93
2022/08/04 00:15:12;;;;;;;1.73;1.60;;;23.70;98.30;;;;;;5013336;28;20026;-93
2022/08/04 00:21:10;;;;;;;5.95;2.00;;;23.80;96.00;;;;;;4956542;29;20104;-93
2022/08/04 00:23:38;;;;;;;3.20;2.05;;;23.80;94.60;;;;;;4982468;28;20038;-93
2022/08/04 00:26:23;;;;;;;7.93;1.75;;;23.90;93.30;;;;;;4974203;28;20023;-92
2022/08/04 00:28:49;;;;;;;3.88;1.80;;;23.90;92.30;;;;;;4973741;28;20018;-93
2022/08/04 00:31:15;;;;;;;2.85;1.38;;;24.00;87.10;;;;;;4973811;28;20077;-91
2022/08/04 00:34:06;;;;;;;6.35;1.73;;;24.10;80.50;;;;;;4973740;28;20037;-92
2022/08/04 00:36:32;;;;;;;2.08;1.55;;;24.30;77.40;;;;;;4969985;28;20027;-92
2022/08/04 00:38:59;;;;;;;2.25;1.63;;;24.40;73.60;;;;;;4960889;28;20034;-92
2022/08/04 00:42:12;;;;;;;19.30;3.28;;;24.50;71.90;;;;;;4974399;28;20035;-93
2022/08/04 00:45:23;;;;;;;2.85;1.83;;;24.50;69.20;;;;;;4973746;28;20049;-90
2022/08/04 00:48:03;;;;;;;4.68;2.22;;;24.60;67.60;;;;;;4973764;28;20015;-93
2022/08/04 00:50:57;;;;;;;18.60;2.47;;;24.60;66.20;;;;;;4973762;28;20019;-93
2022/08/04 00:57:10;;;;;;;3.88;1.65;;;24.50;65.00;;;;;;4974351;28;20399;-93
2022/08/04 01:00:13;;;;;;;9.05;1.65;;;24.50;65.00;;;;;;4973656;28;20105;-93
2022/08/04 01:06:29;;;;;;;4.53;1.73;;;24.40;65.30;;;;;;4972647;28;20079;-94
2022/08/04 01:09:25;;;;;;;4.05;1.30;;;24.40;65.90;;;;;;4957354;28;20420;-93
2022/08/04 01:21:47;;;;;;;2.72;1.30;;;23.90;82.50;;;;;;4994357;28;20505;-94
2022/08/04 01:24:56;;;;;;;1.50;1.40;;;23.80;89.20;;;;;;5009667;28;20022;-93
2022/08/04 01:28:11;;;;;;;2.35;1.85;;;23.70;92.60;;;;;;5012537;28;20068;-94
2022/08/04 01:30:41;;;;;;;3.67;1.80;;;23.50;92.60;;;;;;5012601;28;20517;-93
2022/08/04 01:33:13;;;;;;;2.90;1.50;;;23.40;96.60;;;;;;5012674;28;20128;-93
2022/08/04 01:36:04;;;;;;;2.10;1.75;;;23.30;99.00;;;;;;5012515;28;20152;-93
2022/08/04 01:38:34;;;;;;;3.20;1.80;;;23.30;99.90;;;;;;5013293;28;20367;-93
2022/08/04 01:41:03;;;;;;;9.80;2.00;;;23.30;84.90;;;;;;5012438;28;20088;-93
2022/08/04 01:43:33;;;;;;;5.28;2.00;;;23.40;73.60;;;;;;5009740;28;20188;-93
2022/08/04 01:46:02;;;;;;;5.13;1.98;;;23.70;68.50;;;;;;5016236;28;20022;-93
2022/08/04 01:48:28;;;;;;;5.97;1.40;;;23.90;64.60;;;;;;5011087;28;20022;-92
2022/08/04 01:51:08;;;;;;;4.05;1.83;;;24.10;61.80;;;;;;5015669;28;20033;-92
2022/08/04 01:53:40;;;;;;;4.95;1.85;;;24.30;59.40;;;;;;5013958;28;20080;-93
2022/08/04 01:56:11;;;;;;;5.00;1.80;;;24.50;57.90;;;;;;5002178;28;20034;-91
2022/08/04 01:58:38;;;;;;;1.83;1.52;;;24.60;56.50;;;;;;5016150;28;20026;-93
2022/08/04 02:01:07;;;;;;;7.68;1.75;;;24.70;55.80;;;;;;5016153;28;20037;-93
2022/08/04 02:03:44;;;;;;;2.13;1.60;;;24.80;55.00;;;;;;5015713;28;20482;-92
2022/08/04 02:06:31;;;;;;;6.22;1.65;;;24.80;54.50;;;;;;5015856;28;20045;-94
2022/08/04 02:09:44;;;;;;;3.25;1.60;;;24.90;53.80;;;;;;5015407;28;20535;-93
2022/08/04 02:13:06;;;;;;;5.22;2.08;;;24.90;53.30;;;;;;5015890;28;20115;-94
2022/08/04 02:16:02;;;;;;;3.03;1.60;;;24.90;52.90;;;;;;5014195;28;20470;-94
2022/08/04 02:18:40;;;;;;;5.38;1.75;;;24.90;53.00;;;;;;5015904;28;20049;-95
2022/08/04 02:21:06;;;;;;;5.75;1.30;;;24.90;53.30;;;;;;5015601;28;20052;-94
2022/08/04 02:23:40;;;;;;;5.20;1.95;;;24.90;52.90;;;;;;5015219;28;20374;-93
2022/08/04 02:26:43;;;;;;;3.45;1.48;;;24.90;52.50;;;;;;5015504;28;20018;-93
2022/08/04 02:29:15;;;;;;;7.95;1.40;;;24.90;52.40;;;;;;5015254;28;20026;-94
2022/08/04 02:35:06;;;;;;;5.55;1.52;;;25.00;52.30;;;;;;5004750;28;20025;-94
2022/08/04 02:40:55;;;;;;;1.67;1.42;;;24.90;53.00;;;;;;5016620;28;20097;-94
2022/08/04 02:43:55;;;;;;;2.67;1.42;;;24.80;53.30;;;;;;5015096;28;20396;-94
2022/08/04 02:46:22;;;;;;;1.67;1.30;;;24.80;53.00;;;;;;5015327;28;20029;-93
2022/08/04 02:48:51;;;;;;;2.25;1.35;;;24.70;54.20;;;;;;5015266;28;20026;-94
2022/08/04 02:54:40;;;;;;;2.20;1.50;;;24.50;55.80;;;;;;5016586;28;20484;-94
2022/08/04 02:57:22;;;;;;;;;;;;;;;;;;;;;
2022/08/04 03:00:30;;;;;;;8.40;1.90;;;24.40;56.90;;;;;;4994002;28;20030;-94
2022/08/04 03:03:35;;;;;;;1.63;1.50;;;24.40;55.80;;;;;;4978426;28;20038;-94
2022/08/04 03:06:47;;;;;;;1.45;1.35;;;24.40;55.60;;;;;;4995189;28;20018;-94
2022/08/04 03:16:45;;;;;;;2.30;1.67;;;24.10;60.10;;;;;;4996185;28;20085;-93
2022/08/04 03:20:02;;;;;;;3.85;1.33;;;23.90;62.80;;;;;;4976117;28;20046;-93
2022/08/04 03:22:58;;;;;;;1.65;1.55;;;23.70;65.40;;;;;;5010665;28;20038;-94
2022/08/04 03:25:40;;;;;;;;;;;23.50;69.60;;;;;;4997079;28;20037;-93
2022/08/04 03:32:11;;;;;;;2.15;1.80;;;23.20;78.50;;;;;;4995971;28;20033;-93
2022/08/04 03:34:46;;;;;;;2.20;1.88;;;22.90;86.40;;;;;;4994555;28;20026;-93
2022/08/04 03:41:09;;;;;;;4.20;1.85;;;22.70;94.30;;;;;;5015477;28;20165;-94
2022/08/04 03:44:16;;;;;;;2.35;2.00;;;22.50;96.20;;;;;;5014040;28;20040;-94
2022/08/04 03:47:40;;;;;;;2.63;2.00;;;22.40;98.10;;;;;;4994545;28;20449;-93
2022/08/04 03:53:07;;;;;;;5.65;1.83;;;22.30;99.90;;;;;;4994567;28;20034;-94
2022/08/04 03:57:17;;;;;;;4.28;2.03;;;22.00;99.90;;;;;;4978254;28;20033;-93
2022/08/04 04:00:24;;;;;;;2.53;1.88;;;21.80;99.90;;;;;;4994349;28;20037;-93
2022/08/04 04:03:27;;;;;;;4.55;1.90;;;21.70;99.90;;;;;;4994193;28;20030;-93
2022/08/04 04:06:41;;;;;;;3.53;2.15;;;21.60;99.90;;;;;;5009870;28;20029;-92
2022/08/04 04:09:28;;;;;;;2.75;1.95;;;21.50;99.90;;;;;;5007585;28;20026;-90
2022/08/04 04:12:29;;;;;;;3.67;1.80;;;21.40;99.90;;;;;;5011938;28;20358;-90
2022/08/04 04:15:16;;;;;;;3.00;1.80;;;21.30;99.90;;;;;;5004747;28;20030;-90
2022/08/04 04:18:05;;;;;;;5.07;1.75;;;21.30;99.90;;;;;;5012534;28;20033;-90
2022/08/04 04:20:44;;;;;;;7.30;2.30;;;21.20;99.90;;;;;;5012133;28;20054;-90
2022/08/04 04:23:41;;;;;;;5.03;1.70;;;21.10;99.90;;;;;;5011956;28;20121;-91
2022/08/04 04:26:44;;;;;;;3.63;2.03;;;21.10;99.90;;;;;;5011969;28;20079;-91
2022/08/04 04:29:29;;;;;;;3.75;1.75;;;21.10;99.90;;;;;;5013683;28;20474;-90
2022/08/04 04:32:03;;;;;;;3.17;1.80;;;21.00;99.90;;;;;;5012456;28;20390;-91
2022/08/04 04:35:10;;;;;;;6.10;1.85;;;21.00;99.90;;;;;;5011558;28;20036;-91
2022/08/04 04:38:17;;;;;;;6.13;2.22;;;21.10;99.90;;;;;;5008266;28;20034;-90
2022/08/04 04:41:04;;;;;;;3.13;1.85;;;21.00;99.90;;;;;;5010140;28;20034;-90
2022/08/04 04:43:46;;;;;;;3.22;2.00;;;21.10;99.90;;;;;;5001861;28;20104;-91
2022/08/04 04:46:44;;;;;;;9.45;2.28;;;21.10;99.90;;;;;;5008884;28;20113;-91
2022/08/04 04:52:52;;;;;;;5.50;2.17;;;21.10;99.90;;;;;;5014694;28;20061;-93
2022/08/04 04:55:58;;;;;;;3.90;2.15;;;21.20;99.90;;;;;;4993477;28;20497;-94
2022/08/04 04:58:24;;;;;;;;;;;21.20;99.90;;;;;;4992471;28;20479;-93
2022/08/04 05:01:01;;;;;;;;;;;21.30;99.90;;;;;;4995510;28;19906;-94
2022/08/04 05:06:49;;;;;;;2.47;1.95;;;21.30;99.90;;;;;;4994960;28;20457;-94
2022/08/04 05:17:07;;;;;;;3.33;2.35;;;21.50;99.90;;;;;;4973924;28;20055;-95
2022/08/04 05:30:27;;;;;;;2.80;2.20;;;21.80;99.90;;;;;;4973978;28;20061;-94
2022/08/04 05:39:32;;;;;;;7.78;2.75;;;22.10;99.90;;;;;;4938525;29;20477;-95
2022/08/04 05:45:21;;;;;;;4.32;2.58;;;22.40;99.90;;;;;;4938511;29;20050;-94
2022/08/04 05:48:38;;;;;;;10.45;2.85;;;22.60;99.90;;;;;;4959226;28;20035;-95
2022/08/04 05:54:28;;;;;;;2.45;2.25;;;22.90;99.90;;;;;;4976880;28;20454;-95
2022/08/04 06:00:17;;;;;;;3.60;2.20;;;23.10;99.90;;;;;;4976752;28;20086;-94
2022/08/04 06:06:06;;;;;;;14.02;4.00;;;23.30;99.90;;;;;;4991033;28;20129;-85
2022/08/04 06:08:33;;;;;;;4.93;2.63;;;23.40;99.90;;;;;;4994223;28;20027;-85
2022/08/04 06:11:03;;;;;;;3.80;2.28;;;23.50;99.90;;;;;;5011152;28;20018;-85
2022/08/04 06:13:36;;;;;;;2.33;2.05;;;23.60;99.90;;;;;;5014122;28;20030;-85
2022/08/04 06:16:09;;;;;;;5.90;2.42;;;23.60;99.90;;;;;;5013323;28;21856;-84
2022/08/04 06:18:38;;;;;;;3.20;2.15;;;23.80;99.90;;;;;;5014136;28;20066;-85
2022/08/04 06:21:25;;;;;;;5.07;2.40;;;23.80;99.90;;;;;;5007042;28;20029;-85
2022/08/04 06:23:53;;;;;;;2.40;2.20;;;23.90;99.90;;;;;;5015173;28;20522;-85
2022/08/04 06:26:19;;;;;;;3.35;2.20;;;24.00;99.90;;;;;;5015176;28;20028;-85
2022/08/04 06:29:16;;;;;;;3.67;2.15;;;24.00;99.90;;;;;;5015307;28;20060;-85
2022/08/04 06:31:42;;;;;;;;;;;24.10;99.90;;;;;;5015344;28;20394;-85
2022/08/04 06:34:10;;;;;;;3.88;2.38;;;24.20;99.90;;;;;;5013400;28;19912;-85
2022/08/04 06:36:37;;;;;;;2.20;2.00;;;24.30;99.90;;;;;;5014363;28;20026;-85
2022/08/04 06:39:05;;;;;;;4.40;2.28;;;24.30;99.90;;;;;;5014577;28;20415;-85
2022/08/04 06:41:31;;;;;;;8.45;2.13;;;24.50;99.90;;;;;;5013298;28;20077;-85
2022/08/04 06:44:02;;;;;;;4.57;2.33;;;24.50;99.90;;;;;;5014334;28;20034;-85
2022/08/04 06:46:30;;;;;;;4.40;2.28;;;24.60;99.90;;;;;;5013225;28;20022;-86
2022/08/04 06:48:57;;;;;;;4.43;2.20;;;24.70;99.90;;;;;;5013156;28;20034;-84
2022/08/04 06:51:23;;;;;;;3.85;2.50;;;24.70;99.90;;;;;;5012956;28;20092;-85
2022/08/04 06:53:50;;;;;;;1.83;1.70;;;24.70;99.90;;;;;;5014203;28;20390;-85
2022/08/04 06:56:19;;;;;;;5.55;2.88;;;24.90;99.90;;;;;;5014397;28;20026;-85
2022/08/04 06:58:47;;;;;;;3.67;2.10;;;24.90;99.90;;;;;;5014077;28;20553;-85
2022/08/04 07:01:13;;;;;;;4.15;2.45;;;25.00;99.90;;;;;;5014296;28;20053;-85
2022/08/04 07:03:39;;;;;;;2.72;2.03;;;25.10;99.70;;;;;;5014089;28;20038;-85
2022/08/04 07:06:05;;;;;;;9.25;2.40;;;25.10;98.50;;;;;;4999821;28;20029;-84
2022/08/04 07:08:33;;;;;;;3.35;2.30;;;25.30;98.40;;;;;;4995689;28;20030;-85
2022/08/04 07:11:01;;;;;;;6.35;2.85;;;25.40;98.40;;;;;;4998841;28;20018;-85
2022/08/04 07:13:27;;;;;;;6.45;2.15;;;25.50;97.60;;;;;;5006303;28;20430;-85
2022/08/04 07:15:59;;;;;;;4.63;2.50;;;25.50;97.40;;;;;;5009016;28;20026;-85
2022/08/04 07:18:25;;;;;;;3.72;2.10;;;25.60;97.00;;;;;;5008247;28;20512;-85
2022/08/04 07:20:52;;;;;;;6.28;2.42;;;25.70;96.10;;;;;;5013561;28;20034;-85
2022/08/04 07:23:23;;;;;;;11.20;2.83;;;25.80;95.50;;;;;;4990203;28;20049;-85
2022/08/04 07:25:51;;;;;;;13.45;2.70;;;25.90;95.50;;;;;;5007839;28;20041;-85
2022/08/04 07:28:17;;;;;;;6.40;2.55;;;26.00;95.10;;;;;;5013835;28;20029;-85
2022/08/04 07:31:08;;;;;;;9.35;3.00;;;26.10;95.30;;;;;;5013789;28;20018;-84
2022/08/04 07:33:34;;;;;;;9.82;3.03;;;26.20;94.80;;;;;;5012027;28;20040;-85
2022/08/04 07:36:12;;;;;;;12.48;3.40;;;26.30;94.30;;;;;;5009207;28;20026;-84
2022/08/04 07:38:39;;;;;;;11.30;2.35;;;26.40;93.20;;;;;;5013881;28;20022;-85
2022/08/04 07:41:05;;;;;;;8.80;2.60;;;26.60;92.10;;;;;;5013828;28;20164;-84
2022/08/04 07:43:32;;;;;;;9.02;2.35;;;26.70;88.60;;;;;;5010146;28;20042;-84
2022/08/04 07:45:58;;;;;;;7.85;2.10;;;26.90;87.40;;;;;;5001382;28;20022;-85
2022/08/04 07:48:28;;;;;;;4.60;2.22;;;27.00;84.70;;;;;;5003440;28;20037;-84
2022/08/04 07:50:54;;;;;;;4.05;2.30;;;27.10;81.00;;;;;;4993839;28;20037;-85
2022/08/04 07:53:33;;;;;;;2.28;2.08;;;27.20;75.50;;;;;;5013498;28;20026;-85
2022/08/04 07:56:00;;;;;;;4.03;1.70;;;27.30;71.30;;;;;;5011950;28;20030;-85
2022/08/04 07:58:27;;;;;;;13.20;2.33;;;27.30;68.10;;;;;;5011714;28;20030;-85
2022/08/04 08:00:53;;;;;;;3.22;1.88;;;27.50;65.10;;;;;;5012832;28;20112;-85
2022/08/04 08:03:31;;;;;;;1.67;1.50;;;27.70;65.70;;;;;;5013292;28;20374;-85
2022/08/04 08:05:56;;;;;;;8.52;2.13;;;27.70;64.90;;;;;;5010409;28;20022;-85
2022/08/04 08:08:24;;;;;;;2.03;1.83;;;27.80;61.80;;;;;;5008846;28;20037;-84
2022/08/04 08:10:49;;;;;;;2.58;1.90;;;27.90;59.60;;;;;;5012809;28;20021;-85
2022/08/04 08:13:15;;;;;;;2.60;2.03;;;28.10;58.30;;;;;;5013427;28;20109;-85
2022/08/04 08:15:44;;;;;;;6.88;2.10;;;28.20;57.90;;;;;;5011419;28;20116;-85
2022/08/04 08:18:10;;;;;;;8.73;2.28;;;28.40;57.10;;;;;;5013164;28;20115;-85
2022/08/04 08:23:58;;;;;;;5.40;1.88;;;28.60;54.50;;;;;;5005716;28;20111;-85
2022/08/04 08:26:25;;;;;;;2.28;1.90;;;28.70;53.30;;;;;;5012685;28;20033;-85
2022/08/04 08:28:51;;;;;;;3.28;1.65;;;28.70;53.20;;;;;;5012471;28;20026;-85
2022/08/04 08:34:28;;;;;;;2.15;1.80;;;28.90;52.90;;;;;;5013007;28;20083;-85
2022/08/04 08:41:01;;;;;;;2.45;1.80;;;29.00;51.70;;;;;;4952599;29;20543;-85
2022/08/04 08:43:38;;;;;;;5.18;1.88;;;29.10;51.20;;;;;;5009269;28;20481;-85
2022/08/04 08:46:31;;;;;;;9.13;1.90;;;29.30;50.90;;;;;;5010807;28;20080;-85
2022/08/04 08:49:31;;;;;;;15.30;2.00;;;29.40;50.20;;;;;;5012851;28;20025;-85
2022/08/04 08:52:30;;;;;;;10.05;2.00;;;29.50;49.00;;;;;;5011489;28;20026;-85
2022/08/04 08:55:21;;;;;;;5.03;1.98;;;29.50;48.80;;;;;;5012335;28;20034;-84
2022/08/04 08:58:00;;;;;;;6.22;1.67;;;29.60;49.30;;;;;;5012613;28;20053;-84
2022/08/04 09:00:52;;;;;;;1.63;1.52;;;29.70;48.60;;;;;;5016713;28;20026;-84
2022/08/04 09:03:20;;;;;;;1.73;1.63;;;29.70;47.90;;;;;;5015559;28;20041;-84
2022/08/04 09:06:25;;;;;;;4.07;1.77;;;29.70;47.60;;;;;;5015983;28;20053;-85
2022/08/04 09:09:36;;;;;;;3.65;1.83;;;29.70;48.00;;;;;;5016815;28;20022;-85
2022/08/04 09:12:10;;;;;;;1.80;1.67;;;29.70;47.30;;;;;;5016841;28;20014;-84
2022/08/04 09:14:49;;;;;;;3.70;1.70;;;29.70;47.70;;;;;;5016310;28;20030;-84
2022/08/04 09:17:26;;;;;;;2.33;1.60;;;29.90;46.90;;;;;;5015239;28;20061;-84
2022/08/04 09:23:42;;;;;;;1.98;1.70;;;30.10;46.60;;;;;;5016860;28;20406;-84
2022/08/04 09:26:19;;;;;;;10.23;1.73;;;30.30;47.00;;;;;;5014784;28;20037;-84
2022/08/04 09:28:58;;;;;;;1.80;1.40;;;30.50;45.30;;;;;;5015934;28;20079;-85
2022/08/04 09:31:32;;;;;;;2.72;1.95;;;30.60;45.80;;;;;;5015918;28;20026;-84
2022/08/04 09:34:19;;;;;;;4.32;1.67;;;30.70;43.90;;;;;;5016064;28;20037;-85
2022/08/04 09:37:00;;;;;;;9.82;2.38;;;30.80;44.30;;;;;;5014234;28;20532;-85
2022/08/04 09:39:41;;;;;;;7.25;1.70;;;30.80;44.10;;;;;;5015150;28;20040;-85
2022/08/04 09:42:25;;;;;;;7.50;1.50;;;31.00;43.20;;;;;;5014462;28;20041;-84
2022/08/04 09:45:06;;;;;;;3.55;1.80;;;31.10;42.80;;;;;;5015544;28;20022;-85
2022/08/04 09:48:05;;;;;;;7.82;2.08;;;31.00;42.90;;;;;;5015733;28;20018;-84
2022/08/04 09:50:38;;;;;;;2.83;2.05;;;31.10;42.40;;;;;;5014947;28;20393;-84
2022/08/04 09:53:34;;;;;;;2.50;1.60;;;31.10;41.90;;;;;;5015431;28;20030;-85
2022/08/04 09:56:13;;;;;;;2.83;1.50;;;31.20;42.50;;;;;;5015308;28;20478;-84
2022/08/04 09:59:06;;;;;;;3.33;1.70;;;31.30;42.30;;;;;;5015467;28;20022;-85
2022/08/04 10:01:33;;;;;;;4.40;1.70;;;31.40;42.80;;;;;;5015275;28;20068;-84
2022/08/04 10:04:01;;;;;;;5.32;2.03;;;31.50;42.00;;;;;;5015161;28;20485;-83
2022/08/04 10:07:07;;;;;;;4.93;1.80;;;31.70;41.70;;;;;;5015031;28;20496;-84
2022/08/04 10:10:00;;;;;;;1.55;1.45;;;31.90;41.00;;;;;;5013024;28;20037;-84
2022/08/04 10:12:46;;;;;;;4.00;1.33;;;31.90;40.60;;;;;;5015099;28;20022;-84
2022/08/04 10:15:18;;;;;;;1.83;1.50;;;32.00;40.40;;;;;;5013739;28;20397;-83
2022/08/04 10:18:11;;;;;;;6.25;2.03;;;32.00;41.00;;;;;;5015169;28;20033;-84
2022/08/04 10:20:45;;;;;;;8.88;1.83;;;32.20;39.50;;;;;;5014773;28;20026;-83
2022/08/04 10:23:17;;;;;;;1.38;1.27;;;32.20;40.30;;;;;;5014819;28;20038;-84
2022/08/04 10:26:04;;;;;;;10.95;1.70;;;32.20;39.60;;;;;;5014618;28;20113;-84
2022/08/04 10:28:34;;;;;;;4.07;1.58;;;32.20;39.60;;;;;;5014887;28;20034;-84
2022/08/04 10:31:08;;;;;;;3.80;1.80;;;32.20;40.10;;;;;;5014771;28;20152;-84
2022/08/04 10:33:48;;;;;;;2.42;1.65;;;32.10;40.70;;;;;;5014772;28;20076;-84
2022/08/04 10:36:17;;;;;;;8.48;2.17;;;32.10;41.00;;;;;;5013181;28;20363;-84
2022/08/04 10:39:01;;;;;;;2.03;1.40;;;32.20;39.90;;;;;;5014608;28;20030;-84
2022/08/04 10:41:52;;;;;;;1.95;1.42;;;32.40;39.60;;;;;;5014718;28;20022;-84
2022/08/04 10:44:51;;;;;;;2.13;1.20;;;32.40;38.40;;;;;;5014449;28;20041;-84
2022/08/04 10:47:25;;;;;;;6.57;1.33;;;32.40;38.10;;;;;;5014596;28;20034;-84
2022/08/04 10:49:54;;;;;;;2.97;1.60;;;32.70;37.20;;;;;;5014476;28;20076;-84
2022/08/04 10:52:41;;;;;;;2.08;1.55;;;32.80;37.00;;;;;;5014453;28;20100;-84
2022/08/04 10:55:17;;;;;;;1.98;1.30;;;32.80;37.00;;;;;;5014200;28;20029;-84
2022/08/04 10:57:51;;;;;;;4.38;1.50;;;32.70;38.10;;;;;;5012960;28;20088;-84
2022/08/04 11:00:27;;;;;;;3.28;1.40;;;32.80;37.80;;;;;;5014227;28;20037;-84
2022/08/04 11:03:14;;;;;;;11.30;1.20;;;32.70;38.40;;;;;;5014262;28;20382;-84
2022/08/04 11:06:02;;;;;;;1.80;1.15;;;32.80;36.10;;;;;;5013824;28;20084;-84
2022/08/04 11:08:40;;;;;;;3.42;1.30;;;32.90;35.40;;;;;;5014169;28;20029;-84
2022/08/04 11:11:25;;;;;;;7.55;1.08;;;33.10;35.10;;;;;;5012728;28;20026;-85
2022/08/04 11:13:51;;;;;;;;;;;33.20;35.00;;;;;;5013124;28;20032;-84
2022/08/04 11:16:23;;;;;;;1.02;0.90;;;33.30;34.80;;;;;;5012352;28;19906;-84
2022/08/04 11:19:08;;;;;;;5.93;0.90;;;33.40;34.90;;;;;;5013957;28;20374;-84
2022/08/04 11:21:41;;;;;;;3.78;1.40;;;33.40;34.80;;;;;;5012967;28;20029;-84
2022/08/04 11:24:44;;;;;;;1.42;1.15;;;33.30;35.20;;;;;;5013569;28;20037;-83
2022/08/04 11:27:18;;;;;;;2.03;1.13;;;33.30;33.90;;;;;;5012133;28;20032;-84
2022/08/04 11:30:02;;;;;;;1.30;0.90;;;33.30;34.70;;;;;;5013766;28;20072;-84
2022/08/04 11:32:34;;;;;;;1.15;0.90;;;33.20;34.90;;;;;;5013467;28;20109;-84
2022/08/04 11:35:05;;;;;;;7.05;1.00;;;33.30;35.60;;;;;;5013282;28;20022;-83
2022/08/04 11:38:03;;;;;;;4.55;1.80;;;33.40;35.30;;;;;;5013706;28;20026;-84
2022/08/04 11:40:37;;;;;;;1.38;1.27;;;33.60;35.50;;;;;;5005424;28;20042;-84
2022/08/04 11:43:28;;;;;;;3.90;1.25;;;33.70;35.20;;;;;;5012321;28;20085;-84
2022/08/04 11:45:59;;;;;;;3.03;1.38;;;33.70;35.80;;;;;;5012060;28;20029;-83
2022/08/04 11:48:43;;;;;;;3.28;1.17;;;33.70;35.90;;;;;;5013875;28;20018;-84
2022/08/04 11:51:11;;;;;;;2.92;1.35;;;33.60;36.00;;;;;;5012180;28;20112;-84
2022/08/04 11:53:38;;;;;;;3.85;1.20;;;33.50;36.60;;;;;;5013506;28;20559;-84
2022/08/04 11:56:12;;;;;;;6.45;1.50;;;33.40;36.20;;;;;;5012641;28;20021;-84
2022/08/04 11:58:37;;;;;;;5.30;1.55;;;33.50;36.80;;;;;;5009541;28;20076;-84
2022/08/04 12:01:44;;;;;;;5.70;1.30;;;33.50;36.90;;;;;;4996753;28;20030;-84
2022/08/04 12:04:33;;;;;;;5.13;1.33;;;33.60;36.70;;;;;;5004769;28;20478;-84
2022/08/04 12:07:13;;;;;;;3.20;1.45;;;33.70;35.70;;;;;;5009583;28;20022;-84
2022/08/04 12:09:55;;;;;;;7.10;1.48;;;33.80;36.00;;;;;;5008651;28;20425;-84
2022/08/04 12:12:31;;;;;;;2.90;1.23;;;33.70;36.60;;;;;;4994516;28;20030;-84
2022/08/04 12:15:17;;;;;;;4.13;1.17;;;33.70;37.70;;;;;;5008850;28;20103;-83
2022/08/04 12:18:15;;;;;;;1.85;1.23;;;33.70;36.50;;;;;;5013451;28;20029;-84
2022/08/04 12:20:56;;;;;;;2.53;1.33;;;33.70;36.40;;;;;;5013029;28;20807;-83
2022/08/04 12:23:42;;;;;;;4.75;1.10;;;33.60;37.00;;;;;;5008470;28;20042;-84
2022/08/04 12:26:33;;;;;;;1.77;1.38;;;33.70;35.90;;;;;;5008717;28;20038;-84
2022/08/04 12:29:11;;;;;;;6.05;1.50;;;33.90;35.70;;;;;;4992477;28;20022;-84
2022/08/04 12:32:23;;;;;;;2.75;1.17;;;34.00;35.80;;;;;;4993551;28;20029;-83
2022/08/04 12:35:14;;;;;;;13.27;1.60;;;34.00;36.10;;;;;;4992826;28;20466;-83
2022/08/04 12:37:58;;;;;;;4.50;1.30;;;34.20;35.70;;;;;;4993493;28;20470;-84
2022/08/04 12:40:35;;;;;;;2.35;1.20;;;34.10;35.20;;;;;;5001468;28;20089;-84
2022/08/04 12:43:30;;;;;;;1.52;1.35;;;34.00;35.40;;;;;;4998246;28;20049;-85
2022/08/04 12:46:07;;;;;;;4.80;1.50;;;34.00;35.10;;;;;;5010885;28;20108;-84
2022/08/04 12:48:36;;;;;;;5.45;1.55;;;34.00;35.70;;;;;;5008931;28;20045;-84
2022/08/04 12:51:19;;;;;;;5.97;1.50;;;33.90;36.80;;;;;;5012677;28;20022;-85
2022/08/04 12:53:46;;;;;;;3.65;1.35;;;34.00;35.60;;;;;;5002418;28;20022;-84
2022/08/04 12:56:31;;;;;;;3.58;1.35;;;34.00;35.90;;;;;;5007409;28;20152;-84
2022/08/04 12:59:02;;;;;;;2.65;1.30;;;34.10;36.20;;;;;;4997460;28;20064;-84
2022/08/04 13:01:31;;;;;;;6.80;1.52;;;34.20;35.70;;;;;;5012219;28;20041;-84
2022/08/04 13:04:14;;;;;;;3.38;1.58;;;34.30;34.90;;;;;;5009905;28;20513;-84
2022/08/04 13:06:40;;;;;;;1.42;1.25;;;34.30;35.20;;;;;;4995888;28;20030;-84
2022/08/04 13:09:22;;;;;;;5.10;1.40;;;34.10;36.10;;;;;;4998814;28;20030;-84
2022/08/04 13:11:54;;;;;;;3.13;1.85;;;33.90;36.00;;;;;;5008700;28;20026;-84
2022/08/04 13:14:43;;;;;;;9.57;1.52;;;33.80;36.90;;;;;;5012576;28;20069;-85
2022/08/04 13:17:09;;;;;;;1.20;1.10;;;33.70;36.70;;;;;;5011172;28;20494;-84
2022/08/04 13:19:36;;;;;;;3.28;1.40;;;33.70;37.00;;;;;;5011681;28;20106;-84
2022/08/04 13:22:02;;;;;;;7.97;1.73;;;33.90;36.30;;;;;;4999405;28;20076;-85
2022/08/04 13:24:29;;;;;;;2.55;1.20;;;34.10;35.60;;;;;;4993376;28;20089;-85
2022/08/04 13:26:58;;;;;;;2.33;1.30;;;34.20;37.00;;;;;;5009922;28;20041;-83
2022/08/04 13:29:30;;;;;;;1.67;1.50;;;34.50;34.60;;;;;;5012198;28;20030;-84
2022/08/04 13:32:05;;;;;;;3.67;1.50;;;34.60;34.50;;;;;;5012269;28;20026;-84
2022/08/04 13:34:32;;;;;;;;;;;34.60;34.20;;;;;;4995733;28;20061;-84
2022/08/04 13:37:05;;;;;;;3.72;1.15;;;34.60;34.80;;;;;;5010825;28;19917;-84
2022/08/04 13:39:33;;;;;;;1.13;1.00;;;34.60;34.50;;;;;;5004924;28;20478;-84
2022/08/04 13:42:07;;;;;;;6.72;1.50;;;34.50;35.00;;;;;;5011457;28;20085;-84
2022/08/04 13:44:35;;;;;;;4.60;1.30;;;34.60;35.50;;;;;;4994904;28;20359;-84
2022/08/04 13:47:23;;;;;;;2.63;1.60;;;34.60;34.60;;;;;;5013723;28;20022;-84
2022/08/04 13:50:13;;;;;;;2.15;1.60;;;34.80;34.30;;;;;;4999882;28;20018;-84
2022/08/04 13:52:46;;;;;;;2.42;1.33;;;35.00;34.30;;;;;;5015516;28;20552;-84
2022/08/04 13:55:39;;;;;;;2.72;1.27;;;35.00;33.60;;;;;;5013757;28;20033;-84
2022/08/04 13:58:13;;;;;;;1.58;1.10;;;35.10;33.70;;;;;;5014331;28;20049;-84
2022/08/04 14:00:54;;;;;;;6.10;1.30;;;35.00;33.80;;;;;;5015769;28;20096;-84
2022/08/04 14:03:41;;;;;;;1.40;1.20;;;35.00;33.70;;;;;;5006876;28;20054;-85
2022/08/04 14:06:28;;;;;;;2.15;1.30;;;34.90;34.30;;;;;;5014084;28;20028;-84
2022/08/04 14:09:00;;;;;;;3.88;1.52;;;34.80;34.80;;;;;;5001562;28;20019;-83
2022/08/04 14:11:31;;;;;;;3.42;1.52;;;34.60;34.40;;;;;;5014538;28;20053;-84
2022/08/04 14:13:57;;;;;;;5.43;1.50;;;34.70;35.10;;;;;;5004107;28;20034;-84
2022/08/04 14:16:22;;;;;;;8.32;1.20;;;34.80;34.70;;;;;;5014829;28;20846;-84
2022/08/04 14:19:03;;;;;;;3.75;1.58;;;35.00;34.30;;;;;;5013348;28;20026;-84
2022/08/04 14:21:35;;;;;;;2.28;1.30;;;35.00;34.80;;;;;;5013611;28;20478;-84
2022/08/04 14:24:00;;;;;;;2.28;1.23;;;35.10;35.00;;;;;;5011503;28;20046;-83
2022/08/04 14:26:31;;;;;;;6.03;1.40;;;35.20;33.70;;;;;;5012813;28;20087;-83
2022/08/04 14:29:08;;;;;;;1.17;1.02;;;35.10;33.70;;;;;;5011223;28;22407;-84
2022/08/04 14:31:34;;;;;;;2.85;1.45;;;35.00;35.00;;;;;;5008865;28;20022;-84
2022/08/04 14:34:00;;;;;;;3.53;1.40;;;34.90;34.20;;;;;;5014648;28;20390;-84
2022/08/04 14:36:25;;;;;;;3.47;1.23;;;34.80;34.10;;;;;;5002495;28;20114;-83
2022/08/04 14:39:06;;;;;;;5.18;1.30;;;34.70;34.30;;;;;;5004135;28;20450;-83
2022/08/04 14:41:47;;;;;;;1.83;1.52;;;34.60;34.70;;;;;;5015326;28;20026;-83
2022/08/04 14:44:18;;;;;;;3.00;1.70;;;34.40;34.60;;;;;;5008153;28;20417;-84
2022/08/04 14:46:51;;;;;;;4.22;1.73;;;34.40;34.60;;;;;;5013252;28;20478;-84
2022/08/04 14:49:20;;;;;;;1.15;1.08;;;34.30;34.70;;;;;;5007330;28;20076;-84
2022/08/04 14:51:55;;;;;;;6.38;1.40;;;34.20;35.20;;;;;;5008302;28;20022;-83
2022/08/04 14:54:29;;;;;;;5.60;1.50;;;34.20;35.30;;;;;;4997184;28;20045;-84
2022/08/04 14:57:07;;;;;;;3.10;1.42;;;34.10;35.00;;;;;;5008676;28;20018;-84
2022/08/04 14:59:48;;;;;;;2.78;1.60;;;34.20;35.70;;;;;;5013580;28;20176;-83
2022/08/04 15:02:15;;;;;;;1.40;1.30;;;34.20;35.10;;;;;;5007945;28;20123;-83
2022/08/04 15:04:49;;;;;;;1.48;1.23;;;34.30;35.80;;;;;;5011320;28;20037;-84
2022/08/04 15:07:15;;;;;;;2.95;1.88;;;34.50;35.40;;;;;;5000026;28;20057;-84
2022/08/04 15:09:43;;;;;;;1.98;1.40;;;34.60;34.80;;;;;;4995072;28;20031;-84
2022/08/04 15:12:09;;;;;;;2.38;1.52;;;34.60;35.90;;;;;;5013435;28;20359;-84
2022/08/04 15:14:44;;;;;;;5.60;1.55;;;34.50;34.70;;;;;;5013569;28;20048;-84
2022/08/04 15:17:11;;;;;;;2.90;1.17;;;34.50;34.50;;;;;;5011741;28;20041;-84
2022/08/04 15:19:37;;;;;;;2.17;1.30;;;34.50;35.20;;;;;;5011332;28;20030;-85
2022/08/04 15:22:11;;;;;;;3.95;1.27;;;34.60;34.00;;;;;;4998716;28;20037;-85
2022/08/04 15:24:40;;;;;;;8.40;1.80;;;34.70;33.00;;;;;;5003125;28;20328;-85
2022/08/04 15:27:06;;;;;;;6.18;1.17;;;34.80;33.50;;;;;;5002903;28;20789;-84
2022/08/04 15:29:45;;;;;;;2.00;1.20;;;34.80;33.20;;;;;;4993267;28;20168;-84
2022/08/04 15:32:14;;;;;;;1.20;1.13;;;34.70;34.10;;;;;;5001860;28;20028;-85
2022/08/04 15:34:49;;;;;;;5.50;1.52;;;34.70;35.00;;;;;;5001984;28;20593;-84
2022/08/04 15:37:38;;;;;;;2.70;1.20;;;34.60;33.10;;;;;;5011455;28;20045;-84
2022/08/04 15:40:25;;;;;;;2.00;1.25;;;34.60;33.70;;;;;;4998490;28;20474;-85
2022/08/04 15:43:20;;;;;;;2.88;1.45;;;34.60;33.30;;;;;;4996590;28;20085;-84